• Join FlightAware (Why Join?)
  • Login
  • US Flag 
10:24AM EDT


 

Airport Tracker/Info


-or-


 

Live Flight TrackerFlight Track Log ✈ N790CA ✈ 29-Jul-2013 ✈ KHYI - KSRQ

Flight Track Log - Related Links

Times and Time Zones

All times are in EDT time to prevent confusion due to time zone crossing. See the N790CA flight status page for this flight to view local times or setup timezone preferences in your user account.

Time Position Orientation Groundspeed Altitude Reporting Facility
EDT Latitude Longitude Course Direction KTS MPH feet Rate Location/Type
12:01PM 29.8881 -97.8194 90° East 193 222 2,700  Level Houston Center
12:02PM 29.9339 -97.8058 14° North 171 197 4,200 1,380 Climbing Houston Center
12:03PM 29.9408 -97.7553 81° East 159 183 5,600 1,380 Climbing Houston Center
12:05PM 29.8396 -97.3567 90° East  Level Estimated
12:05PM 29.9392 -97.7039 92° East 160 184 7,100  Level Houston Center
12:06PM 29.8695 -97.2790 66° East  Level FlightAware Approximate
12:06PM 29.9406 -97.6503 88° East 159 183 8,600  Level Houston Center
12:07PM 29.8602 -97.1947 90° East  Level Estimated
12:07PM 29.9428 -97.5986 87° East 160 184 10,000  Level Houston Center
12:08PM 29.9422 -97.5497 91° East 163 188 11,300 1,200 Climbing Houston Center
12:09PM 29.9436 -97.4947 88° East 170 196 12,600 1,380 Climbing Houston Center
12:10PM 29.9450 -97.4292 89° East 170 196 14,200 1,380 Climbing Houston Center
12:11PM 29.9458 -97.3728 89° East 175 201 15,500 1,200 Climbing Houston Center
12:12PM 29.9467 -97.3158 89° East 178 205 16,700 1,140 Climbing Houston Center
12:13PM 29.9472 -97.2572 89° East 182 209 17,900 1,200 Climbing Houston Center
12:14PM 29.9492 -97.2006 88° East 179 206 19,200 1,080 Climbing Houston Center
12:15PM 29.9492 -97.1422 90° East 181 208 20,200 1,080 Climbing Houston Center
12:16PM 29.9500 -97.0669 89° East 193 222 21,500 1,080 Climbing Houston Center
12:17PM 29.9511 -97.0014 89° East 201 231 22,500 840 Climbing Houston Center
12:18PM 29.9511 -96.9347 90° East 206 237 23,300 780 Climbing Houston Center
12:19PM 29.9528 -96.8669 88° East 211 243 24,200 840 Climbing Houston Center
12:20PM 29.9531 -96.7972 90° East 215 247 25,100 840 Climbing Houston Center
12:21PM 29.9542 -96.7297 89° East 212 244 26,000 780 Climbing Houston Center
12:22PM 29.9547 -96.6633 89° East 207 238 26,800 480 Climbing Houston Center
12:23PM 29.9544 -96.5803 90° East 216 249 27,000 60 Climbing Houston Center
12:24PM 29.9558 -96.5008 89° East 243 280 27,000  Level Houston Center
12:25PM 29.9558 -96.4161 90° East 260 299 27,000  Level Houston Center
12:26PM 29.9569 -96.3317 89° East 263 303 27,000  Level Houston Center
12:27PM 29.9569 -96.2442 90° East 270 311 27,000  Level Houston Center
12:28PM 29.9572 -96.1567 90° East 272 313 27,000  Level Houston Center
12:29PM 29.9583 -96.0508 89° East 275 316 27,000  Level Houston Center
12:30PM 29.9583 -95.9731 90° East 273 314 27,000  Level Houston Center
12:31PM 29.9594 -95.8853 89° East 275 316 27,000  Level Houston Center
12:32PM 29.9597 -95.7806 90° East 272 313 27,000  Level Houston Center
12:34PM 29.9592 -95.6931 90° East 272 313 27,000  Level Houston Center
12:35PM 29.9594 -95.6056 90° East 272 313 27,000  Level Houston Center
12:36PM 29.9600 -95.5181 90° East 273 314 27,000  Level Houston Center
12:37PM 29.9600 -95.4294 90° East 275 316 27,000  Level Houston Center
12:38PM 29.9603 -95.3414 90° East 275 316 27,000  Level Houston Center
12:39PM 29.9603 -95.2347 90° East 276 318 27,000  Level Houston Center
12:40PM 29.9608 -95.1456 90° East 278 320 27,000  Level Houston Center
12:41PM 29.9597 -95.0564 91° East 278 320 27,000  Level Houston Center
12:42PM 29.9600 -94.9678 90° East 276 318 27,000  Level Houston Center
12:43PM 29.9592 -94.8775 91° East 280 322 27,000  Level Houston Center
12:44PM 29.9581 -94.7897 91° East 276 318 27,000  Level Houston Center
12:45PM 29.9583 -94.7008 90° East 276 318 27,000  Level Houston Center
12:46PM 29.9575 -94.5950 90° East 274 315 27,000  Level Houston Center
12:47PM 29.9564 -94.5058 91° East 276 318 27,000  Level Houston Center
12:48PM 29.9561 -94.4172 90° East 276 318 27,000  Level Houston Center
12:49PM 29.9550 -94.3281 91° East 279 321 27,000  Level Houston Center
12:50PM 29.9544 -94.2400 90° East 278 320 27,000  Level Houston Center
12:51PM 29.9533 -94.1506 91° East 280 322 27,000  Level Houston Center
12:52PM 29.9519 -94.0447 91° East 275 316 27,000  Level Houston Center
12:53PM 29.9522 -93.9561 90° East 277 319 27,000  Level Houston Center
12:54PM 29.9503 -93.8672 91° East 277 319 27,000  Level Houston Center
12:55PM 29.9503 -93.7783 90° East 280 322 27,000  Level Houston Center
12:56PM 29.9489 -93.6906 91° East 276 318 27,000  Level Houston Center
12:57PM 29.9472 -93.6017 91° East 277 319 27,000  Level Houston Center
12:58PM 29.9456 -93.5069 91° East 273 314 27,000  Level Houston Center
12:59PM 29.9444 -93.4194 91° East 273 314 27,000  Level Houston Center
01:00PM 29.9436 -93.3142 90° East 276 318 27,000  Level Houston Center
01:01PM 29.9444 -93.2258 89° East 277 319 27,000  Level Houston Center
01:02PM 29.9475 -93.1389 88° East 274 315 27,000  Level Houston Center
01:04PM 29.9483 -93.0500 89° East 278 320 27,000  Level Houston Center
01:05PM 29.9494 -92.9631 89° East 276 318 27,000  Level Houston Center
01:06PM 29.9522 -92.8750 88° East 274 315 27,000  Level Houston Center
01:07PM 29.9547 -92.7697 88° East 275 316 27,000  Level Houston Center
01:08PM 29.9556 -92.6817 89° East 275 316 27,000  Level Houston Center
01:09PM 29.9586 -92.5958 88° East 271 312 27,000  Level Houston Center
01:10PM 29.9597 -92.5078 89° East 275 316 27,000  Level Houston Center
01:11PM 29.9608 -92.4200 89° East 275 316 27,000  Level Houston Center
01:12PM 29.9625 -92.3333 89° East 273 314 27,000  Level Houston Center
01:13PM 29.9642 -92.2261 89° East 277 319 27,000  Level Houston Center
01:14PM 29.9647 -92.1386 90° East 277 319 27,000  Level Houston Center
01:15PM 29.9658 -92.0506 89° East 276 318 27,000  Level Houston Center
01:16PM 29.9675 -91.9628 89° East 276 318 27,000  Level Houston Center
01:17PM 29.9681 -91.8750 90° East 276 318 27,000  Level Houston Center
01:18PM 29.9700 -91.7869 89° East 276 318 27,000  Level Houston Center
01:19PM 29.9664 -91.6897 92° East 274 315 27,000  Level Houston Center
01:20PM 29.9536 -91.6028 100° East 275 316 27,000  Level Houston Center
01:21PM 29.9422 -91.5150 98° East 276 318 27,000  Level Houston Center
01:22PM 29.9425 -91.4272 90° East 274 315 27,000  Level Houston Center
01:23PM 29.9378 -91.3233 93° East 272 313 27,000  Level Houston Center
01:24PM 29.9392 -91.2350 89° East 274 315 27,000  Level Houston Center
01:25PM 29.9394 -91.1489 90° East 271 312 27,000  Level Houston Center
01:26PM 29.9414 -91.0606 89° East 274 315 27,000  Level Houston Center
01:27PM 29.9433 -90.9742 88° East 272 313 27,000  Level Houston Center
01:28PM 29.9572 -90.8889 79° East 271 312 27,000  Level Houston Center
01:29PM 29.9744 -90.7853 79° East 274 315 27,000  Level Houston Center
01:30PM 29.9883 -90.7000 79° East 272 313 27,000  Level Houston Center
01:31PM 30.0022 -90.6125 80° East 277 319 27,000  Level Houston Center
01:32PM 30.0158 -90.5264 80° East 275 316 27,000  Level Houston Center
01:33PM 30.0289 -90.4406 80° East 273 314 27,000  Level Houston Center
01:34PM 30.0417 -90.3544 80° East 273 314 27,000  Level Houston Center
01:36PM 30.0586 -90.2508 79° East 274 315 27,000  Level Houston Center
01:37PM 30.0714 -90.1642 80° East 274 315 27,000  Level Houston Center
01:38PM 30.0839 -90.0783 80° East 273 314 27,000  Level Houston Center
01:39PM 30.0975 -89.9914 80° East 276 318 27,000  Level Houston Center
01:40PM 30.1094 -89.9047 81° East 275 316 27,000  Level Houston Center
01:41PM 30.1256 -89.8000 80° East 278 320 27,000  Level Houston Center
01:42PM 30.1386 -89.7139 80° East 276 318 27,000  Level Houston Center
01:43PM 30.1517 -89.6272 80° East 276 318 27,000  Level Houston Center
01:44PM 30.1642 -89.5411 80° East 274 315 27,000  Level Houston Center
01:45PM 30.1775 -89.4553 80° East 274 315 27,000 360 Level Houston Center
01:46PM 30.1919 -89.3539 81° East 264 304 27,800 720 Climbing Houston Center
01:47PM 30.2053 -89.2797 78° East 240 276 28,500 540 Climbing Houston Center
01:48PM 30.2136 -89.2039 83° East 238 274 29,000 240 Climbing Houston Center
01:49PM 30.2256 -89.1247 80° East 248 285 29,000  Level Houston Center
01:50PM 30.2367 -89.0414 81° East 259 298 29,000  Level Houston Center
01:51PM 30.2503 -88.9381 81° East 273 314 29,000  Level Houston Center
01:52PM 30.2625 -88.8525 81° East 272 313 29,000  Level Houston Center
01:53PM 30.2758 -88.7653 80° East 275 316 29,000  Level Houston Center
01:54PM 30.2872 -88.6772 81° East 278 320 29,000  Level Houston Center
01:55PM 30.3003 -88.5897 80° East 277 319 29,000  Level Houston Center
01:56PM 30.3128 -88.5025 81° East 277 319 29,000  Level Houston Center
01:57PM 30.3275 -88.3972 81° East 278 320 29,000  Level Houston Center
01:58PM 30.3392 -88.3078 81° East 281 323 29,000  Level Houston Center
01:59PM 30.3517 -88.2194 81° East 280 322 29,000  Level Houston Center
02:00PM 30.3700 -88.1333 76° East 278 320 29,000  Level Houston Center
02:01PM 30.3972 -88.0514 69° East 275 316 29,000  Level Houston Center
02:02PM 30.4236 -87.9683 70° East 277 319 29,000  Level Houston Center
02:03PM 30.4556 -87.8697 69° East 276 318 29,000  Level Houston Center
02:04PM 30.4817 -87.7869 70° East 274 315 29,000  Level Houston Center
02:05PM 30.5078 -87.7050 70° East 272 313 29,000  Level Houston Center
02:06PM 30.5328 -87.6219 71° East 274 315 29,000  Level Houston Center
02:07PM 30.5592 -87.5400 69° East 273 314 29,000  Level Houston Center
02:09PM 30.5903 -87.4386 70° East 267 307 29,000  Level Jacksonville Center
02:10PM 30.6164 -87.3531 70° East 267 307 29,000  Level Jacksonville Center
02:11PM 30.6422 -87.2722 70° East 267 307 29,000  Level Jacksonville Center
02:12PM 30.6681 -87.1864 71° East 267 307 29,000  Level Jacksonville Center
02:13PM 30.6939 -87.1031 70° East 267 307 29,000  Level Jacksonville Center
02:14PM 30.7217 -87.0172 69° East 267 307 29,000  Level Jacksonville Center
02:15PM 30.7472 -86.9339 70° East 267 307 29,000  Level Jacksonville Center
02:16PM 30.7750 -86.8503 69° East 267 307 29,000  Level Jacksonville Center
02:17PM 30.8006 -86.7669 70° East 267 307 29,000  Level Jacksonville Center
02:18PM 30.8261 -86.6808 71° East 267 307 29,000 660 Level Jacksonville Center
02:19PM 30.8181 -86.5983 96° East 255 293 30,400 960 Climbing Jacksonville Center
02:20PM 30.8033 -86.5275 104° East 238 274 31,000 300 Climbing Jacksonville Center
02:21PM 30.7889 -86.4519 103° East 233 268 31,000  Level Jacksonville Center
02:22PM 30.7661 -86.3689 108° East 248 285 31,000  Level Jacksonville Center
02:23PM 30.7494 -86.2839 103° East 261 300 31,000  Level Jacksonville Center
02:24PM 30.7372 -86.1964 99° East 267 307 31,000  Level Jacksonville Center
02:25PM 30.7228 -86.1064 101° East 272 313 31,000  Level Jacksonville Center
02:26PM 30.7083 -86.0142 100° East 279 321 31,000  Level Jacksonville Center
02:27PM 30.6981 -85.9244 98° East 279 321 31,000  Level Jacksonville Center
02:28PM 30.6836 -85.8322 100° East 279 321 31,000  Level Jacksonville Center
02:29PM 30.6731 -85.7425 98° East 279 321 31,000  Level Jacksonville Center
02:30PM 30.6583 -85.6528 101° East 279 321 31,000  Level Jacksonville Center
02:31PM 30.6497 -85.5656 97° East 279 321 31,000  Level Jacksonville Center
02:32PM 30.6369 -85.4736 99° East 279 321 31,000  Level Jacksonville Center
02:33PM 30.6117 -85.3858 108° East 279 321 31,000  Level Jacksonville Center
02:34PM 30.5756 -85.3031 117° Southeast 284 327 31,000  Level Jacksonville Center
02:35PM 30.5333 -85.2247 122° Southeast 284 327 31,000  Level Jacksonville Center
02:36PM 30.4931 -85.1467 121° Southeast 289 333 31,000 -60 Level Jacksonville Center
02:37PM 30.4506 -85.0661 121° Southeast 289 333 30,900 -540 Descending Jacksonville Center
02:38PM 30.4058 -84.9831 122° Southeast 289 333 30,000 -900 Descending Jacksonville Center
02:39PM 30.3594 -84.8956 122° Southeast 302 348 29,200 -480 Descending Jacksonville Center
02:40PM 30.3147 -84.8103 121° Southeast 302 348 29,100 -120 Descending Jacksonville Center
02:41PM 30.2719 -84.7300 122° Southeast 302 348 29,000 -60 Descending Jacksonville Center
02:42PM 30.2272 -84.6475 122° Southeast 296 341 29,000  Level Jacksonville Center
02:43PM 30.1867 -84.5700 121° Southeast 296 341 29,100  Climbing Jacksonville Center
02:44PM 30.1458 -84.4900 121° Southeast 296 341 29,000 -60 Descending Jacksonville Center
02:45PM 30.1008 -84.4100 123° Southeast 296 341 29,000  Level Jacksonville Center
02:46PM 30.0600 -84.3325 121° Southeast 291 335 29,000  Level Jacksonville Center
02:47PM 30.0172 -84.2528 122° Southeast 291 335 29,000  Level Jacksonville Center
02:48PM 29.9700 -84.1706 124° Southeast 291 335 29,100  Climbing Jacksonville Center
02:49PM 29.9269 -84.0908 122° Southeast 285 328 29,100  Level Jacksonville Center
02:50PM 29.8858 -84.0136 122° Southeast 285 328 29,100  Level Jacksonville Center
02:51PM 29.8425 -83.9367 123° Southeast 285 328 29,100  Level Jacksonville Center
02:52PM 29.7867 -83.8736 136° Southeast 279 321 29,100 -60 Level Jacksonville Center
02:53PM 29.7181 -83.8300 151° Southeast 279 321 29,000 -60 Descending Jacksonville Center
02:54PM 29.6475 -83.7839 150° Southeast 284 327 29,000  Level Jacksonville Center
02:55PM 29.5789 -83.7428 152° Southeast 284 327 29,100 -420 Climbing Jacksonville Center
02:56PM 29.5042 -83.6944 151° Southeast 289 333 28,200 -840 Descending Jacksonville Center
02:57PM 29.4272 -83.6461 151° Southeast 294 338 27,500 -600 Descending Jacksonville Center
02:58PM 29.3544 -83.5978 150° Southeast 304 350 27,000 -300 Descending Jacksonville Center
02:59PM 29.2794 -83.5544 153° Southeast 304 350 27,000 -600 Level Jacksonville Center
03:00PM 29.2025 -83.5158 156° South 299 344 25,900 -1,260 Descending Jacksonville Center
03:01PM 29.1211 -83.4703 154° Southeast 306 352 24,500 -1,500 Descending Jacksonville Center
03:02PM 29.0378 -83.4247 154° Southeast 322 371 22,900 -1,560 Descending Jacksonville Center
03:03PM 28.9544 -83.3814 156° South 328 377 21,400 -1,560 Descending Jacksonville Center
03:04PM 28.8692 -83.3358 155° Southeast 334 384 19,800 -1,620 Descending Jacksonville Center
03:05PM 28.7878 -83.2931 155° Southeast 334 384 18,200 -1,500 Descending Jacksonville Center
03:06PM 28.7128 -83.2525 155° Southeast 334 384 16,900 -1,440 Descending Jacksonville Center
03:07PM 28.6336 -83.2094 154° Southeast 334 384 15,400 -1,500 Descending Jacksonville Center
03:09PM 28.4667 -83.1167 154° Southeast 300 345 12,200 -1,320 Descending Tampa TRACON
03:10PM 28.4000 -83.0833 156° South 284 327 11,400 -900 Descending Tampa TRACON
03:11PM 28.3333 -83.0500 156° South 276 318 10,500 -900 Descending Tampa TRACON
03:12PM 28.2667 -83.0167 156° South 270 311 9,600 -900 Descending Tampa TRACON
03:13PM 28.2000 -82.9833 156° South 267 307 8,700 -900 Descending Tampa TRACON
03:14PM 28.1333 -82.9333 147° Southeast 265 305 7,800 -960 Descending Tampa TRACON
03:15PM 28.0667 -82.9000 156° South 255 293 6,800 -900 Descending Tampa TRACON
03:16PM 28.0000 -82.8833 168° South 252 290 6,100 -360 Descending Tampa TRACON
03:17PM 27.9333 -82.8500 156° South 227 261 6,100  Level Tampa TRACON
03:18PM 27.8833 -82.8167 149° Southeast 221 254 6,100  Level Tampa TRACON
03:19PM 27.8333 -82.8000 164° South 217 250 6,100  Level Tampa TRACON
03:20PM 27.7667 -82.7667 156° South 217 250 6,100  Level Tampa TRACON
03:21PM 27.7167 -82.7333 149° Southeast 220 253 6,100  Level Tampa TRACON
03:22PM 27.6667 -82.7000 149° Southeast 217 250 6,100 -360 Level Tampa TRACON
03:23PM 27.6167 -82.6500 138° Southeast 229 264 5,400 -840 Descending Tampa TRACON
03:24PM 27.5667 -82.6167 149° Southeast 228 262 4,600 -900 Descending Tampa TRACON
03:25PM 27.5167 -82.5667 138° Southeast 212 244 3,600 -900 Descending Tampa TRACON
03:26PM 27.4667 -82.5333 149° Southeast 204 235 2,700 -540 Descending Tampa TRACON
03:27PM 27.4333 -82.5000 138° Southeast 169 194 2,600 -420 Descending Tampa TRACON
03:28PM 27.3833 -82.4833 164° South 168 193 1,900 -900 Descending Tampa TRACON
03:29PM 27.3667 -82.5167 241° Southwest 143 165 900 -1,020 Descending Tampa TRACON
03:31PM 27.3833 -82.5500 180° South  Level FlightAware Approximate
03:38PM 27.3954 -82.5544 180° South  Level Estimated
03:39PM 27.3954 -82.5544 180° South  Level Estimated